createdAt,value
2018-07-17T00:01:51.201Z,4.20
2018-07-17T00:03:56.074Z,4.20
2018-07-17T00:06:00.304Z,4.53
2018-07-17T00:08:09.159Z,4.53
2018-07-17T00:10:13.447Z,3.80
2018-07-17T00:12:17.365Z,3.90
2018-07-17T00:14:22.214Z,4.40
2018-07-17T00:16:26.582Z,4.40
2018-07-17T00:18:30.616Z,4.00
2018-07-17T00:20:35.270Z,4.33
2018-07-17T00:22:45.376Z,4.60
2018-07-17T00:24:51.464Z,4.13
2018-07-17T00:27:06.624Z,4.10
2018-07-17T00:29:11.793Z,4.17
2018-07-17T00:31:17.813Z,4.53
2018-07-17T00:33:22.732Z,4.07
2018-07-17T00:35:26.623Z,4.57
2018-07-17T00:37:33.850Z,6.33
2018-07-17T00:39:37.860Z,5.10
2018-07-17T00:41:42.486Z,5.37
2018-07-17T00:43:47.322Z,4.90
2018-07-17T00:45:51.246Z,4.60
2018-07-17T00:47:55.687Z,5.13
2018-07-17T00:50:00.952Z,4.70
2018-07-17T00:52:04.912Z,4.93
2018-07-17T00:54:09.146Z,4.90
2018-07-17T00:56:14.932Z,5.43
2018-07-17T00:58:21.830Z,4.80
2018-07-17T01:00:31.259Z,5.40
2018-07-17T01:02:40.467Z,4.57
2018-07-17T01:04:50.270Z,4.57
2018-07-17T01:07:01.824Z,4.80
2018-07-17T01:09:12.920Z,4.87
2018-07-17T01:11:22.741Z,4.43
2018-07-17T01:13:39.404Z,5.10
2018-07-17T01:15:43.406Z,4.80
2018-07-17T01:17:48.823Z,5.17
2018-07-17T01:19:53.031Z,4.83
2018-07-17T01:21:57.627Z,4.50
2018-07-17T01:24:02.240Z,5.00
2018-07-17T01:26:06.177Z,4.70
2018-07-17T01:28:09.776Z,4.43
2018-07-17T01:30:15.763Z,4.97
2018-07-17T01:32:19.963Z,4.70
2018-07-17T01:34:24.719Z,4.40
2018-07-17T01:36:28.909Z,5.07
2018-07-17T01:38:33.436Z,5.00
2018-07-17T01:40:38.738Z,5.57
2018-07-17T01:42:42.708Z,4.80
2018-07-17T01:44:48.232Z,5.10
2018-07-17T01:46:52.176Z,5.53
2018-07-17T01:48:56.078Z,5.60
2018-07-17T01:51:00.025Z,5.27
2018-07-17T01:53:04.891Z,4.97
2018-07-17T01:55:08.932Z,5.33
2018-07-17T01:57:17.504Z,5.77
2018-07-17T01:59:21.484Z,5.70
2018-07-17T02:01:25.655Z,5.77
2018-07-17T02:03:34.991Z,5.27
2018-07-17T02:05:38.967Z,5.50
2018-07-17T02:07:44.181Z,5.77
2018-07-17T02:09:51.970Z,5.70
2018-07-17T02:11:56.314Z,5.83
2018-07-17T02:14:00.580Z,5.23
2018-07-17T02:16:04.896Z,5.97
2018-07-17T02:18:09.429Z,6.03
2018-07-17T02:20:14.775Z,5.40
2018-07-17T02:22:19.141Z,6.40
2018-07-17T02:24:23.365Z,5.67
2018-07-17T02:26:27.765Z,6.20
2018-07-17T02:28:32.903Z,6.50
2018-07-17T02:30:37.154Z,5.80
2018-07-17T02:32:41.435Z,5.93
2018-07-17T02:34:46.892Z,5.80
2018-07-17T02:36:50.619Z,5.90
2018-07-17T02:38:54.699Z,5.80
2018-07-17T02:40:58.702Z,6.03
2018-07-17T02:43:02.690Z,5.33
2018-07-17T02:45:06.861Z,6.00
2018-07-17T02:47:10.812Z,6.00
2018-07-17T02:49:17.204Z,5.77
2018-07-17T02:51:22.354Z,6.00
2018-07-17T02:53:26.338Z,5.67
2018-07-17T02:55:32.572Z,6.00
2018-07-17T02:57:38.780Z,6.10
2018-07-17T02:59:42.771Z,5.87
2018-07-17T03:01:46.743Z,5.53
2018-07-17T03:03:50.670Z,6.50
2018-07-17T03:05:54.620Z,6.17
2018-07-17T03:07:58.945Z,6.83
2018-07-17T03:10:02.839Z,6.73
2018-07-17T03:12:08.982Z,6.67
2018-07-17T03:14:14.331Z,6.40
2018-07-17T03:16:18.265Z,6.30
2018-07-17T03:18:22.300Z,5.70
2018-07-17T03:20:26.947Z,6.10
2018-07-17T03:22:30.990Z,5.43
2018-07-17T03:24:34.983Z,6.27
2018-07-17T03:26:39.699Z,6.40
2018-07-17T03:28:43.865Z,6.47
2018-07-17T03:30:47.864Z,6.33
2018-07-17T03:32:52.127Z,6.17
2018-07-17T03:34:56.054Z,5.97
2018-07-17T03:37:00.043Z,6.43
2018-07-17T03:39:09.229Z,6.33
2018-07-17T03:41:14.716Z,5.97
2018-07-17T03:43:19.338Z,5.73
2018-07-17T03:45:23.715Z,6.10
2018-07-17T03:47:27.629Z,5.90
2018-07-17T03:49:32.215Z,6.37
2018-07-17T03:51:36.200Z,6.37
2018-07-17T03:53:40.449Z,6.87
2018-07-17T03:55:44.465Z,6.50
2018-07-17T03:57:49.733Z,5.60
2018-07-17T03:59:53.795Z,6.23
2018-07-17T04:01:57.729Z,6.40
2018-07-17T04:04:03.363Z,6.03
2018-07-17T04:06:08.051Z,5.57
2018-07-17T04:08:11.996Z,6.37
2018-07-17T04:10:16.339Z,6.00
2018-07-17T04:12:20.292Z,5.73
2018-07-17T04:14:26.067Z,6.07
2018-07-17T04:16:30.609Z,5.70
2018-07-17T04:18:34.611Z,5.97
2018-07-17T04:20:38.559Z,6.20
2018-07-17T04:22:52.199Z,6.73
2018-07-17T04:24:56.370Z,6.40
2018-07-17T04:27:01.312Z,6.17
2018-07-17T04:29:07.091Z,6.13
2018-07-17T04:31:11.341Z,6.43
2018-07-17T04:33:15.444Z,5.77
2018-07-17T04:35:19.814Z,5.80
2018-07-17T04:37:26.726Z,6.37
2018-07-17T04:39:33.683Z,6.90
2018-07-17T04:41:39.448Z,7.23
2018-07-17T04:43:45.458Z,6.30
2018-07-17T04:45:50.087Z,6.27
2018-07-17T04:47:56.469Z,6.77
2018-07-17T04:50:00.463Z,6.57
2018-07-17T04:52:04.507Z,6.47
2018-07-17T04:54:10.802Z,6.53
2018-07-17T04:56:15.862Z,7.03
2018-07-17T04:58:19.874Z,7.03
2018-07-17T05:00:29.200Z,7.10
2018-07-17T05:02:33.183Z,7.27
2018-07-17T05:04:37.925Z,7.43
2018-07-17T05:06:42.375Z,6.70
2018-07-17T05:08:47.376Z,6.47
2018-07-17T05:10:51.421Z,6.63
2018-07-17T05:13:00.383Z,6.40
2018-07-17T05:15:21.010Z,6.60
2018-07-17T05:17:25.429Z,6.37
2018-07-17T05:19:31.007Z,6.53
2018-07-17T05:21:35.062Z,6.43
2018-07-17T05:23:40.012Z,6.90
2018-07-17T05:25:45.430Z,6.33
2018-07-17T05:27:57.480Z,6.67
2018-07-17T05:30:01.500Z,6.33
2018-07-17T05:32:06.731Z,7.07
2018-07-17T05:34:11.601Z,7.47
2018-07-17T05:36:20.208Z,7.37
2018-07-17T05:38:25.720Z,6.57
2018-07-17T05:40:30.627Z,7.57
2018-07-17T05:42:35.327Z,7.90
2018-07-17T05:44:53.385Z,7.90
2018-07-17T05:47:11.752Z,7.40
2018-07-17T05:49:17.284Z,7.33
2018-07-17T05:51:21.606Z,7.33
2018-07-17T05:53:26.481Z,8.07
2018-07-17T05:55:31.970Z,8.33
2018-07-17T05:57:37.788Z,8.70
2018-07-17T05:59:44.671Z,8.93
2018-07-17T06:01:49.196Z,8.53
2018-07-17T06:03:54.508Z,8.70
2018-07-17T06:05:58.486Z,8.70
2018-07-17T06:08:03.505Z,9.07
2018-07-17T06:10:12.578Z,8.07
2018-07-17T06:12:17.608Z,8.63
2018-07-17T06:14:26.668Z,8.63
2018-07-17T06:16:32.570Z,8.47
2018-07-17T06:18:36.571Z,8.37
2018-07-17T06:20:40.660Z,9.20
2018-07-17T06:22:45.507Z,9.17
2018-07-17T06:24:49.720Z,9.43
2018-07-17T06:27:04.819Z,9.30
2018-07-17T06:31:24.360Z,8.47
2018-07-17T06:33:30.083Z,8.50
2018-07-17T06:35:39.703Z,8.15
2018-07-17T06:37:44.428Z,8.77
2018-07-17T06:39:51.993Z,8.48
2018-07-17T06:41:57.463Z,8.35
2018-07-17T06:44:06.340Z,8.65
2018-07-17T06:46:11.047Z,9.38
2018-07-17T06:48:15.035Z,8.78
2018-07-17T06:50:19.438Z,9.50
2018-07-17T06:52:23.381Z,9.55
2018-07-17T06:54:30.306Z,9.20
2018-07-17T06:56:40.427Z,9.70
2018-07-17T06:58:45.765Z,8.70
2018-07-17T07:00:50.984Z,8.95
2018-07-17T07:02:55.762Z,9.13
2018-07-17T07:05:01.633Z,8.58
2018-07-17T07:07:07.430Z,9.03
2018-07-17T07:09:14.447Z,7.97
2018-07-17T07:11:19.441Z,8.10
2018-07-17T07:13:24.793Z,8.83
2018-07-17T07:15:28.883Z,8.70
2018-07-17T07:17:32.881Z,8.83
2018-07-17T07:19:41.609Z,9.05
2018-07-17T07:21:46.308Z,9.60
2018-07-17T07:23:50.277Z,8.80
2018-07-17T07:25:55.454Z,9.30
2018-07-17T07:28:07.200Z,9.73
2018-07-17T07:30:20.035Z,10.13
2018-07-17T07:32:28.414Z,10.78
2018-07-17T07:34:32.369Z,9.48
2018-07-17T07:36:38.351Z,8.83
2018-07-17T07:38:46.610Z,9.70
2018-07-17T07:40:52.198Z,9.40
2018-07-17T07:42:56.234Z,9.48
2018-07-17T07:45:00.753Z,9.03
2018-07-17T07:47:04.735Z,9.18
2018-07-17T07:49:11.065Z,8.53
2018-07-17T07:51:21.995Z,8.48
2018-07-17T07:53:28.463Z,8.78
2018-07-17T07:55:32.489Z,7.95
2018-07-17T07:57:37.986Z,6.60
2018-07-17T07:59:46.736Z,6.65
2018-07-17T08:01:50.727Z,6.20
2018-07-17T08:03:57.467Z,6.75
2018-07-17T08:06:02.090Z,6.22
2018-07-17T08:08:08.241Z,6.05
2018-07-17T08:10:12.294Z,6.03
2018-07-17T08:12:16.335Z,6.03
2018-07-17T08:14:22.677Z,5.97
2018-07-17T08:16:28.294Z,6.12
2018-07-17T08:18:37.136Z,5.58
2018-07-17T08:21:05.964Z,5.62
2018-07-17T08:23:10.523Z,6.90
2018-07-17T08:25:16.942Z,6.60
2018-07-17T08:27:21.793Z,5.85
2018-07-17T08:29:32.552Z,6.00
2018-07-17T08:31:38.818Z,5.78
2018-07-17T08:33:44.710Z,5.65
2018-07-17T08:35:53.262Z,5.50
2018-07-17T08:38:13.202Z,6.15
2018-07-17T08:40:17.151Z,5.85
2018-07-17T08:42:25.267Z,5.42
2018-07-17T08:44:30.208Z,5.60
2018-07-17T08:48:47.198Z,5.83
2018-07-17T08:50:51.107Z,6.05
2018-07-17T08:52:55.403Z,5.90
2018-07-17T08:55:01.400Z,6.15
2018-07-17T08:57:07.018Z,6.00
2018-07-17T08:59:12.089Z,5.60
2018-07-17T09:01:24.182Z,5.60
2018-07-17T09:03:42.155Z,6.30
2018-07-17T09:05:48.128Z,5.60
2018-07-17T09:07:54.010Z,5.90
2018-07-17T09:09:58.828Z,5.83
2018-07-17T09:12:04.732Z,5.78
2018-07-17T09:14:09.032Z,5.50
2018-07-17T09:16:13.824Z,5.47
2018-07-17T09:18:19.278Z,5.97
2018-07-17T09:20:27.577Z,5.40
2018-07-17T09:22:32.475Z,5.85
2018-07-17T09:24:36.406Z,4.70
2018-07-17T09:26:40.678Z,5.20
2018-07-17T09:28:45.969Z,5.25
2018-07-17T09:30:55.512Z,5.25
2018-07-17T09:33:03.104Z,5.40
2018-07-17T09:35:07.992Z,5.17
2018-07-17T09:37:12.978Z,4.37
2018-07-17T09:39:16.937Z,4.72
2018-07-17T09:41:22.816Z,4.30
2018-07-17T09:43:27.278Z,4.92
2018-07-17T09:45:32.202Z,5.12
2018-07-17T09:47:36.282Z,4.65
2018-07-17T09:49:40.544Z,4.08
2018-07-17T09:51:47.070Z,4.78
2018-07-17T09:53:51.100Z,4.55
2018-07-17T09:55:55.113Z,4.28
2018-07-17T09:58:05.684Z,3.92
2018-07-17T10:00:15.636Z,3.80
2018-07-17T10:02:26.173Z,3.30
2018-07-17T10:04:34.876Z,3.12
2018-07-17T10:06:42.422Z,3.50
2018-07-17T10:08:49.667Z,3.67
2018-07-17T10:10:58.295Z,3.47
2018-07-17T10:13:04.406Z,3.77
2018-07-17T10:15:14.377Z,3.58
2018-07-17T10:17:21.715Z,3.60
2018-07-17T10:19:26.370Z,3.62
2018-07-17T10:21:32.264Z,3.60
2018-07-17T10:23:38.412Z,3.85
2018-07-17T10:25:42.388Z,3.83
2018-07-17T10:27:46.389Z,3.30
2018-07-17T10:29:52.522Z,2.98
2018-07-17T10:32:00.511Z,2.72
2018-07-17T10:34:06.808Z,2.92
2018-07-17T10:36:11.188Z,3.10
2018-07-17T10:38:17.229Z,4.10
2018-07-17T10:40:23.284Z,3.45
2018-07-17T10:42:33.751Z,3.75
2018-07-17T10:44:39.357Z,3.45
2018-07-17T10:46:43.723Z,3.67
2018-07-17T10:48:48.776Z,3.40
2018-07-17T10:50:53.363Z,3.52
2018-07-17T10:53:08.453Z,3.17
2018-07-17T10:55:18.040Z,3.00
2018-07-17T10:57:27.721Z,2.72
2018-07-17T10:59:33.503Z,2.55
2018-07-17T11:01:43.811Z,2.65
2018-07-17T11:03:52.641Z,2.55
2018-07-17T11:06:03.546Z,2.45
2018-07-17T11:08:23.948Z,2.52
2018-07-17T11:10:31.638Z,2.47
2018-07-17T11:12:37.437Z,2.20
2018-07-17T11:14:42.395Z,2.22
2018-07-17T11:16:49.387Z,2.40
2018-07-17T11:18:54.809Z,2.40
2018-07-17T11:21:01.648Z,2.62
2018-07-17T11:23:14.422Z,2.27
2018-07-17T11:25:19.333Z,2.65
2018-07-17T11:27:23.817Z,2.75
2018-07-17T11:29:27.783Z,2.55
2018-07-17T11:33:48.238Z,2.40
2018-07-17T11:35:53.833Z,2.65
2018-07-17T11:37:59.795Z,2.83
2018-07-17T11:40:09.324Z,2.83
2018-07-17T11:42:15.085Z,2.67
2018-07-17T11:44:19.628Z,2.52
2018-07-17T11:46:25.488Z,2.80
2018-07-17T11:48:37.600Z,2.80
2018-07-17T11:50:44.105Z,2.50
2018-07-17T11:52:49.865Z,2.67
2018-07-17T11:55:32.672Z,2.80
2018-07-17T11:57:37.999Z,2.50
2018-07-17T11:59:42.023Z,3.12
2018-07-17T12:04:06.750Z,3.15
2018-07-17T12:06:11.198Z,3.58
2018-07-17T12:08:40.736Z,2.92
2018-07-17T12:10:45.235Z,3.45
2018-07-17T12:12:49.928Z,3.27
2018-07-17T12:14:54.750Z,3.30
2018-07-17T12:17:01.242Z,2.77
2018-07-17T12:19:09.069Z,2.90
2018-07-17T12:21:14.875Z,3.00
2018-07-17T12:23:21.491Z,3.20
2018-07-17T12:25:25.926Z,2.37
2018-07-17T12:27:30.029Z,2.62
2018-07-17T12:29:40.480Z,2.67
2018-07-17T12:31:47.729Z,3.10
2018-07-17T12:33:54.700Z,2.75
2018-07-17T12:36:03.379Z,2.80
2018-07-17T12:38:12.908Z,2.92
2018-07-17T12:40:25.207Z,2.60
2018-07-17T12:42:37.132Z,2.65
2018-07-17T12:44:41.135Z,2.83
2018-07-17T12:46:45.788Z,2.90
2018-07-17T12:48:51.167Z,2.70
2018-07-17T12:50:58.796Z,3.10
2018-07-17T12:53:03.311Z,2.45
2018-07-17T12:55:07.736Z,2.77
2018-07-17T12:57:12.019Z,2.80
2018-07-17T12:59:20.631Z,2.30
2018-07-17T13:01:29.620Z,2.65
2018-07-17T13:03:39.313Z,2.95
2018-07-17T13:05:44.219Z,3.12
2018-07-17T13:07:54.307Z,3.15
2018-07-17T13:10:00.306Z,3.20
2018-07-17T13:12:05.280Z,2.83
2018-07-17T13:14:11.013Z,2.83
2018-07-17T13:16:22.512Z,2.95
2018-07-17T13:18:30.396Z,3.00
2018-07-17T13:20:34.387Z,3.12
2018-07-17T13:22:40.547Z,2.77
2018-07-17T13:24:46.083Z,2.58
2018-07-17T13:26:52.517Z,3.37
2018-07-17T13:28:58.151Z,2.75
2018-07-17T13:31:04.031Z,3.20
2018-07-17T13:33:09.044Z,2.90
2018-07-17T13:35:17.967Z,2.95
2018-07-17T13:37:21.974Z,2.62
2018-07-17T13:39:26.398Z,2.95
2018-07-17T13:41:38.800Z,2.90
2018-07-17T13:43:45.462Z,2.70
2018-07-17T13:45:50.012Z,3.20
2018-07-17T13:47:57.126Z,2.90
2018-07-17T13:50:11.876Z,3.15
2018-07-17T13:52:19.091Z,2.75
2018-07-17T13:54:23.320Z,2.80
2018-07-17T13:56:30.592Z,2.75
2018-07-17T13:58:43.695Z,3.05
2018-07-17T14:00:47.780Z,3.02
2018-07-17T14:02:52.376Z,2.70
2018-07-17T14:04:57.300Z,2.80
2018-07-17T14:07:02.088Z,2.62
2018-07-17T14:09:09.328Z,2.77
2018-07-17T14:11:14.363Z,2.83
2018-07-17T14:13:18.870Z,3.00
2018-07-17T14:15:23.989Z,2.70
2018-07-17T14:17:31.657Z,2.87
2018-07-17T14:19:35.707Z,2.95
2018-07-17T14:21:41.394Z,2.67
2018-07-17T14:23:54.508Z,3.05
2018-07-17T14:26:01.602Z,2.42
2018-07-17T14:28:06.740Z,3.00
2018-07-17T14:30:13.431Z,3.17
2018-07-17T14:32:17.480Z,2.95
2018-07-17T14:34:21.484Z,2.70
2018-07-17T14:36:26.383Z,2.62
2018-07-17T14:38:32.071Z,2.90
2018-07-17T14:40:43.997Z,3.08
2018-07-17T14:42:51.265Z,3.10
2018-07-17T14:45:03.302Z,3.25
2018-07-17T14:47:12.584Z,3.08
2018-07-17T14:49:17.262Z,3.10
2018-07-17T14:51:22.904Z,2.98
2018-07-17T14:53:32.184Z,3.22
2018-07-17T14:55:37.139Z,2.98
2018-07-17T14:57:42.076Z,3.52
2018-07-17T14:59:46.053Z,2.72
2018-07-17T15:01:50.075Z,3.17
2018-07-17T15:03:54.439Z,3.00
2018-07-17T15:05:59.468Z,2.77
2018-07-17T15:08:04.787Z,2.80
2018-07-17T15:10:18.685Z,2.90
2018-07-17T15:12:22.685Z,2.70
2018-07-17T15:14:35.069Z,2.90
2018-07-17T15:16:42.951Z,2.70
2018-07-17T15:18:51.525Z,2.80
2018-07-17T15:20:57.206Z,3.10
2018-07-17T15:23:01.992Z,2.95
2018-07-17T15:25:08.889Z,2.75
2018-07-17T15:29:23.940Z,2.95
2018-07-17T15:31:29.228Z,2.40
2018-07-17T15:33:40.136Z,2.70
2018-07-17T15:35:44.781Z,3.20
2018-07-17T15:37:51.928Z,2.42
2018-07-17T15:39:58.607Z,2.87
2018-07-17T15:42:04.263Z,2.98
2018-07-17T15:44:08.475Z,3.42
2018-07-17T15:46:15.283Z,3.15
2018-07-17T15:48:20.721Z,3.30
2018-07-17T15:50:25.648Z,3.30
2018-07-17T15:52:30.499Z,3.12
2018-07-17T15:54:36.064Z,3.12
2018-07-17T15:56:40.625Z,2.95
2018-07-17T15:58:47.789Z,2.83
2018-07-17T16:00:51.987Z,2.80
2018-07-17T16:02:57.317Z,2.83
2018-07-17T16:05:04.504Z,2.67
2018-07-17T16:07:25.361Z,2.87
2018-07-17T16:09:29.644Z,3.33
2018-07-17T16:11:35.646Z,2.98
2018-07-17T16:13:40.923Z,2.62
2018-07-17T16:15:45.631Z,3.10
2018-07-17T16:17:53.905Z,2.75
2018-07-17T16:19:59.278Z,2.55
2018-07-17T16:24:34.661Z,2.52
2018-07-17T16:26:43.715Z,2.90
2018-07-17T16:29:37.303Z,3.10
2018-07-17T16:31:43.415Z,2.75
2018-07-17T16:33:54.293Z,2.77
2018-07-17T16:36:01.333Z,3.20
2018-07-17T16:38:18.740Z,2.75
2018-07-17T16:40:40.427Z,2.90
2018-07-17T16:42:45.637Z,2.92
2018-07-17T16:44:51.384Z,2.70
2018-07-17T16:46:59.618Z,3.17
2018-07-17T16:49:09.204Z,2.85
2018-07-17T16:51:14.792Z,3.20
2018-07-17T16:53:22.152Z,2.75
2018-07-17T16:55:41.654Z,2.52
2018-07-17T16:57:49.994Z,2.80
2018-07-17T16:59:55.376Z,2.90
2018-07-17T17:02:07.717Z,2.47
2018-07-17T17:04:20.708Z,2.20
2018-07-17T17:06:26.194Z,2.20
2018-07-17T17:08:33.640Z,2.17
2018-07-17T17:10:38.154Z,2.50
2018-07-17T17:12:43.008Z,2.10
2018-07-17T17:14:48.795Z,2.40
2018-07-17T17:16:52.939Z,2.40
2018-07-17T17:18:57.499Z,2.27
2018-07-17T17:21:03.325Z,2.50
2018-07-17T17:23:07.234Z,2.50
2018-07-17T17:25:13.240Z,2.27
2018-07-17T17:27:23.200Z,2.00
2018-07-17T17:29:34.224Z,2.20
2018-07-17T17:31:38.855Z,2.20
2018-07-17T17:33:43.805Z,2.50
2018-07-17T17:36:22.389Z,2.22
2018-07-17T17:38:42.559Z,2.10
2018-07-17T17:40:46.839Z,1.80
2018-07-17T17:42:51.809Z,2.20
2018-07-17T17:44:56.652Z,2.33
2018-07-17T17:47:02.870Z,2.10
2018-07-17T17:49:08.423Z,2.17
2018-07-17T17:51:16.512Z,2.15
2018-07-17T17:53:22.142Z,2.22
2018-07-17T17:55:35.268Z,1.70
2018-07-17T17:57:42.499Z,1.70
2018-07-17T17:59:49.387Z,1.60
2018-07-17T18:01:57.765Z,1.85
2018-07-17T18:04:06.526Z,1.92
2018-07-17T18:06:11.415Z,1.80
2018-07-17T18:08:15.384Z,1.70
2018-07-17T18:10:22.304Z,2.00
2018-07-17T18:12:27.288Z,1.95
2018-07-17T18:14:34.276Z,1.82
2018-07-17T18:16:39.566Z,1.90
2018-07-17T18:18:44.289Z,1.72
2018-07-17T18:20:49.582Z,2.20
2018-07-17T18:22:53.871Z,2.15
2018-07-17T18:25:05.764Z,2.30
2018-07-17T18:27:14.434Z,2.40
2018-07-17T18:29:21.282Z,2.22
2018-07-17T18:31:25.846Z,2.55
2018-07-17T18:33:29.791Z,2.77
2018-07-17T18:35:34.338Z,2.83
2018-07-17T18:37:38.331Z,2.55
2018-07-17T18:39:42.353Z,2.37
2018-07-17T18:41:50.653Z,2.50
2018-07-17T18:43:57.305Z,2.30
2018-07-17T18:46:02.649Z,2.65
2018-07-17T18:48:07.673Z,2.50
2018-07-17T18:50:28.344Z,2.35
2018-07-17T18:52:55.508Z,2.40
2018-07-17T18:58:35.554Z,2.50
2018-07-17T19:00:56.809Z,2.67
2018-07-17T19:03:27.714Z,2.60
2018-07-17T19:05:43.025Z,3.00
2018-07-17T19:07:50.464Z,2.47
2018-07-17T19:09:59.877Z,2.70
2018-07-17T19:12:04.175Z,3.00
2018-07-17T19:14:08.445Z,2.80
2018-07-17T19:16:12.471Z,3.47
2018-07-17T19:18:17.423Z,2.98
2018-07-17T19:20:22.267Z,2.85
2018-07-17T19:22:28.358Z,2.92
2018-07-17T19:24:38.877Z,2.87
2018-07-17T19:27:19.031Z,2.83
2018-07-17T19:29:38.728Z,2.83
2018-07-17T19:31:46.862Z,3.13
2018-07-17T19:33:57.295Z,3.22
2018-07-17T19:36:02.620Z,3.17
2018-07-17T19:38:06.699Z,2.93
2018-07-17T19:40:10.648Z,3.00
2018-07-17T19:42:16.347Z,2.93
2018-07-17T19:44:23.427Z,2.60
2018-07-17T19:49:40.124Z,3.30
2018-07-17T19:51:46.467Z,3.20
2018-07-17T19:53:58.354Z,3.17
2018-07-17T19:56:02.761Z,3.50
2018-07-17T20:05:17.620Z,3.60
2018-07-17T20:07:23.109Z,3.30
2018-07-17T20:09:27.040Z,3.43
2018-07-17T20:11:34.650Z,3.33
2018-07-17T20:13:40.172Z,3.23
2018-07-17T20:15:47.402Z,3.23
2018-07-17T20:17:53.727Z,3.43
2018-07-17T20:19:58.270Z,3.20
2018-07-17T20:22:04.089Z,3.03
2018-07-17T20:24:08.019Z,3.20
2018-07-17T20:26:16.369Z,3.10
2018-07-17T20:28:21.703Z,3.40
2018-07-17T20:30:25.797Z,3.30
2018-07-17T20:32:33.502Z,3.07
2018-07-17T20:34:39.849Z,2.80
2018-07-17T20:36:45.213Z,3.13
2018-07-17T20:38:51.814Z,2.83
2018-07-17T20:40:59.809Z,3.13
2018-07-17T20:43:04.746Z,2.60
2018-07-17T20:45:14.202Z,2.67
2018-07-17T20:47:21.278Z,2.60
2018-07-17T20:49:25.534Z,2.67
2018-07-17T20:51:34.744Z,2.43
2018-07-17T20:53:39.303Z,2.60
2018-07-17T20:55:45.611Z,2.37
2018-07-17T20:57:50.280Z,2.40
2018-07-17T20:59:58.586Z,2.30
2018-07-17T21:02:04.213Z,2.53
2018-07-17T21:04:09.840Z,2.73
2018-07-17T21:06:15.608Z,2.37
2018-07-17T21:08:21.715Z,2.73
2018-07-17T21:10:27.331Z,2.50
2018-07-17T21:12:33.366Z,2.43
2018-07-17T21:14:41.854Z,2.60
2018-07-17T21:16:46.083Z,2.67
2018-07-17T21:18:53.720Z,2.30
2018-07-17T21:21:00.046Z,2.10
2018-07-17T21:23:12.272Z,2.43
2018-07-17T21:25:25.314Z,2.10
2018-07-17T21:27:33.139Z,2.40
2018-07-17T21:29:38.771Z,2.40
2018-07-17T21:31:49.076Z,2.73
2018-07-17T21:33:53.040Z,2.80
2018-07-17T21:38:09.018Z,3.10
2018-07-17T21:40:15.213Z,2.87
2018-07-17T21:42:25.013Z,2.90
2018-07-17T21:44:31.780Z,2.70
2018-07-17T21:46:39.410Z,2.90
2018-07-17T21:48:43.650Z,3.07
2018-07-17T21:50:49.124Z,3.17
2018-07-17T21:53:01.603Z,2.57
2018-07-17T21:55:09.496Z,2.67
2018-07-17T21:57:18.098Z,3.00
2018-07-17T21:59:23.629Z,2.77
2018-07-17T22:01:33.193Z,2.60
2018-07-17T22:03:37.151Z,2.50
2018-07-17T22:05:42.593Z,2.63
2018-07-17T22:07:48.996Z,2.40
2018-07-17T22:09:53.084Z,2.37
2018-07-17T22:11:57.727Z,2.23
2018-07-17T22:14:01.754Z,2.60
2018-07-17T22:16:06.772Z,2.47
2018-07-17T22:18:11.447Z,2.50
2018-07-17T22:20:19.345Z,2.63
2018-07-17T22:22:24.361Z,2.43
2018-07-17T22:24:32.242Z,2.90
2018-07-17T22:26:38.531Z,2.70
2018-07-17T22:28:44.592Z,2.60
2018-07-17T22:30:51.677Z,2.80
2018-07-17T22:32:58.226Z,2.83
2018-07-17T22:35:04.127Z,2.40
2018-07-17T22:37:08.739Z,2.60
2018-07-17T22:39:14.309Z,2.70
2018-07-17T22:41:18.360Z,2.60
2018-07-17T22:43:23.047Z,2.80
2018-07-17T22:45:27.369Z,2.40
2018-07-17T22:47:31.394Z,2.53
2018-07-17T22:49:38.459Z,2.47
2018-07-17T22:51:43.390Z,2.60
2018-07-17T22:53:49.808Z,2.67
2018-07-17T22:55:57.715Z,2.53
2018-07-17T22:58:04.040Z,2.50
2018-07-17T23:00:08.185Z,2.50
2018-07-17T23:02:12.766Z,2.57
2018-07-17T23:04:18.400Z,2.60
2018-07-17T23:06:23.638Z,2.70
2018-07-17T23:08:29.825Z,2.67
2018-07-17T23:10:35.052Z,2.73
2018-07-17T23:12:39.087Z,2.40
2018-07-17T23:14:43.207Z,2.67
2018-07-17T23:16:52.945Z,2.40
2018-07-17T23:18:57.376Z,3.30
2018-07-17T23:21:01.439Z,3.00
2018-07-17T23:23:12.253Z,2.50
2018-07-17T23:25:16.412Z,2.63
2018-07-17T23:27:22.084Z,2.67
2018-07-17T23:29:27.577Z,2.57
2018-07-17T23:31:31.620Z,2.90
2018-07-17T23:33:36.145Z,3.37
2018-07-17T23:35:56.098Z,3.10
2018-07-17T23:38:03.040Z,2.90
2018-07-17T23:40:10.111Z,3.10
2018-07-17T23:42:17.074Z,3.00
2018-07-17T23:44:22.205Z,2.97
2018-07-17T23:46:27.292Z,2.77
2018-07-17T23:48:32.638Z,3.63
2018-07-17T23:50:37.056Z,3.40
2018-07-17T23:52:43.322Z,3.27
2018-07-17T23:54:47.310Z,3.13
2018-07-17T23:56:52.507Z,3.13
2018-07-17T23:58:58.497Z,3.07
